Holden, West Virginia
Current Conditions -  °F | °C
As of 3:55 PM on Thursday 18 Dec 2014 (Local Time) from KSJS Reporting Station
Overcast Overcast  
Wind Chill: 29°   Ceiling: 2700
Heat Index: 33°   Visibility: 10mi
Dew Point: 25°   Wind: 5mph
Humidity: 71%   Direction: 340°NNW
Pressure: 30.2"   Gusts: NA
Location:  37.81°N, 82.07°W
Report Text: KSJS 182055Z AUTO 34004KT 10SM BKN027 OVC085 01/M04 A3020 RMK AO2 T00071040
Loading
Personal Weather Stations






























Interactive Weather Map New forecast layout! Learn more

10-Day Weather Forecast

Advertisements
Track Severe Weather on mobile